createdAt,value
2023-03-13T05:25:22.757Z,4.80
2023-03-13T05:29:27.170Z,4.05
2023-03-13T05:33:30.740Z,4.30
2023-03-13T05:37:35.203Z,4.00
2023-03-13T05:41:39.943Z,4.37
2023-03-13T05:45:44.789Z,4.10
2023-03-13T05:49:47.828Z,4.72
2023-03-13T05:53:51.634Z,3.37
2023-03-13T05:57:55.320Z,4.15
2023-03-13T06:01:58.842Z,4.50
2023-03-13T06:06:02.787Z,5.20
2023-03-13T06:10:06.404Z,4.22
2023-03-13T06:14:09.466Z,4.20
2023-03-13T06:18:12.889Z,5.43
2023-03-13T06:22:17.248Z,5.55
2023-03-13T06:26:19.935Z,4.90
2023-03-13T06:30:23.010Z,3.70
2023-03-13T06:34:25.897Z,4.53
2023-03-13T06:38:29.585Z,4.97
2023-03-13T06:42:32.246Z,4.40
2023-03-13T06:46:35.414Z,3.87
2023-03-13T06:50:41.995Z,4.53
2023-03-13T06:54:45.221Z,4.55
2023-03-13T06:59:04.056Z,4.83
2023-03-13T07:03:07.105Z,4.55
2023-03-13T07:07:14.966Z,4.43
2023-03-13T07:11:24.071Z,4.28
2023-03-13T07:15:38.494Z,4.10
2023-03-13T07:19:41.549Z,4.18
2023-03-13T07:23:45.705Z,3.70
2023-03-13T07:27:52.253Z,4.33
2023-03-13T07:31:55.271Z,4.12
2023-03-13T07:35:58.752Z,4.10
2023-03-13T07:40:01.532Z,4.53
2023-03-13T07:44:04.673Z,4.90
2023-03-13T07:48:08.003Z,3.90
2023-03-13T07:52:11.618Z,4.03
2023-03-13T07:56:16.985Z,4.03
2023-03-13T08:00:20.722Z,4.45
2023-03-13T08:04:24.225Z,4.07
2023-03-13T08:08:27.272Z,3.93
2023-03-13T08:12:37.669Z,4.43
2023-03-13T08:16:40.393Z,3.15
2023-03-13T08:20:45.519Z,3.57
2023-03-13T08:24:48.640Z,2.87
2023-03-13T08:29:19.092Z,3.67
2023-03-13T08:33:22.719Z,3.20
2023-03-13T08:37:28.561Z,2.87
2023-03-13T08:42:05.551Z,2.95
2023-03-13T08:46:18.434Z,3.40
2023-03-13T08:50:22.852Z,2.67
2023-03-13T08:54:26.008Z,3.20
2023-03-13T08:58:28.884Z,3.35
2023-03-13T09:02:32.098Z,4.17
2023-03-13T09:06:36.417Z,3.25
2023-03-13T09:10:39.333Z,3.67
2023-03-13T09:14:42.217Z,2.70
2023-03-13T09:18:46.073Z,2.40
2023-03-13T09:22:48.774Z,2.37
2023-03-13T09:27:00.597Z,2.67
2023-03-13T09:31:11.235Z,2.47
2023-03-13T09:35:14.367Z,2.45
2023-03-13T09:39:17.074Z,1.62
2023-03-13T09:43:26.348Z,2.07
2023-03-13T09:47:58.252Z,2.12
2023-03-13T09:52:21.991Z,2.30
2023-03-13T09:56:29.365Z,2.10
2023-03-13T10:00:39.880Z,1.70
2023-03-13T10:04:51.241Z,1.62
2023-03-13T10:08:53.979Z,2.25
2023-03-13T10:13:04.118Z,2.50
2023-03-13T10:17:39.333Z,2.58
2023-03-13T10:21:46.311Z,1.52
2023-03-13T10:25:49.891Z,1.93
2023-03-13T10:29:55.897Z,1.67
2023-03-13T10:34:12.337Z,1.90
2023-03-13T10:38:20.428Z,1.62
2023-03-13T10:42:35.405Z,1.37
2023-03-13T10:46:42.326Z,1.40
2023-03-13T10:50:47.791Z,1.30
2023-03-13T10:54:50.805Z,2.00
2023-03-13T10:58:55.292Z,1.98
2023-03-13T11:02:59.689Z,1.85
2023-03-13T11:07:14.265Z,2.30
2023-03-13T11:11:20.970Z,2.50
2023-03-13T11:15:33.389Z,2.35
2023-03-13T11:19:46.150Z,1.70
2023-03-13T11:23:55.012Z,1.70
2023-03-13T11:28:26.441Z,2.58
2023-03-13T11:32:37.475Z,2.03
2023-03-13T11:36:52.907Z,2.10
2023-03-13T11:41:22.756Z,1.90
2023-03-13T11:45:41.332Z,1.42
2023-03-13T11:50:26.591Z,1.80
2023-03-13T11:55:02.241Z,4.97
2023-03-13T11:59:49.245Z,1.90
2023-03-13T12:04:25.913Z,3.22
2023-03-13T12:08:34.570Z,1.50
2023-03-13T12:12:57.755Z,2.22
2023-03-13T12:17:10.279Z,2.20
2023-03-13T12:21:42.883Z,2.93
2023-03-13T12:26:12.551Z,3.70
2023-03-13T12:30:23.450Z,1.92
2023-03-13T12:34:36.684Z,2.23
2023-03-13T12:39:05.079Z,2.33
2023-03-13T12:43:25.346Z,2.33
2023-03-13T12:47:40.922Z,2.40
2023-03-13T12:51:46.926Z,2.10
2023-03-13T12:55:57.801Z,2.28
2023-03-13T13:00:28.291Z,2.40
2023-03-13T13:04:42.301Z,2.10
2023-03-13T13:08:44.930Z,2.45
2023-03-13T13:13:17.292Z,3.22
2023-03-13T13:17:26.968Z,2.47
2023-03-13T13:21:31.228Z,2.87
2023-03-13T13:25:35.560Z,2.60
2023-03-13T13:29:38.501Z,2.47
2023-03-13T13:33:41.389Z,1.80
2023-03-13T13:37:49.394Z,2.95
2023-03-13T13:41:52.434Z,2.75
2023-03-13T13:46:03.211Z,3.83
2023-03-13T13:50:20.932Z,3.17
2023-03-13T13:54:42.384Z,3.30
2023-03-13T13:58:46.214Z,2.53
2023-03-13T14:02:54.041Z,2.85
2023-03-13T14:07:01.586Z,2.42
2023-03-13T14:11:06.217Z,2.35
2023-03-13T14:15:23.592Z,2.10
2023-03-13T14:19:44.668Z,1.70
2023-03-13T14:23:47.851Z,1.67
2023-03-13T14:27:51.763Z,2.33
2023-03-13T14:32:00.931Z,2.47
2023-03-13T14:36:03.966Z,3.00
2023-03-13T14:40:29.882Z,2.27
2023-03-13T14:44:37.346Z,2.12
2023-03-13T14:48:46.509Z,1.92
2023-03-13T14:52:52.842Z,2.30
2023-03-13T14:57:16.328Z,5.13
2023-03-13T15:01:26.739Z,7.75
2023-03-13T15:05:32.084Z,1.20
2023-03-13T15:09:41.911Z,2.57
2023-03-13T15:13:45.093Z,1.58
2023-03-13T15:17:47.738Z,1.37
2023-03-13T15:21:54.959Z,3.17
2023-03-13T15:25:57.697Z,1.60
2023-03-13T15:30:00.767Z,1.80
2023-03-13T15:34:03.756Z,4.60
2023-03-13T15:38:11.186Z,4.40
2023-03-13T15:42:13.882Z,2.20
2023-03-13T15:46:16.970Z,2.30
2023-03-13T15:50:22.585Z,2.07
2023-03-13T15:54:26.589Z,2.87
2023-03-13T15:58:30.353Z,2.78
2023-03-13T16:02:33.368Z,3.37
2023-03-13T16:06:36.334Z,4.25
2023-03-13T16:10:38.970Z,4.82
